Arbor Lodge, OR

3:54 PM PDT on October 30, 2014 (GMT -0700)
Kenton | Change Station
CLOSE
Current Station
Personal Weather Station
Location: Portland, OR
Elevation: 116 ft
Nearby Weather Stations

Elev 116 ft 45.58 °N, 122.70 °W | Updated 4 minutes ago

Rain
Rain
57.6 °F
Feels Like 57.6 °F
N
0.0
Wind Variable Wind from ESE
Gusts 8.0 mph

Today
High -- | Low -- °F
--% Chance of Precip.
Yesterday
High -- | Low -- °F
Precip. -- in
7:47 AM 6:00 PM
Waxing Crescent, 48% visible
Pressure 29.82 in
Visibility 5.0 miles
Clouds Few 3500 ft
Mostly Cloudy 7000 ft
Overcast 9000 ft
Dew Point 56 °F
Humidity 93%
Rainfall 0.14 in
Snow Depth Not available.
UV 1 out of 12
Pollen .40 out of 12
Air Quality Not available.
Flu Activity Not available.
METAR KVUO 302153Z AUTO 14006KT 5SM -RA FEW035 BKN070 OVC090 15/12 A2982 RMK AO2 RAB11 SLP098 P0005 T01500122

More Conditions Fewer Conditions

Pressure 29.82 in
Visibility 5.0 miles
Clouds Few 3500 ft
Mostly Cloudy 7000 ft
Overcast 9000 ft
Dew Point 56 °F
Humidity 93%
Rainfall 0.14 in
Snow Depth Not available.
UV 1 out of 12
Pollen .40 out of 12
Air Quality Not available.
Flu Activity Not available.
METAR KVUO 302153Z AUTO 14006KT 5SM -RA FEW035 BKN070 OVC090 15/12 A2982 RMK AO2 RAB11 SLP098 P0005 T01500122

More Conditions Fewer Conditions

10-Day Weather Forecast

Almanac

Astronomy

Oct. 30, 2014 Rise Set
Actual Time
Civil Twilight
Nautical Twilight
Astronomical Twilight
Moon
Length of Visible Light
Length of Day
Tomorrow will be .
, % of the Moon is Illuminated

Today's Extremes

State Highs State Lows

Community

WunderPhotos

Upload Photos

1,766,488 photos uploaded!

WunderBlogs® & News

Nearby

Air Quality

  Air Quality AQ Index Pollutant
Not available.

Snow Depth

Station Depth Elevation

Earthquake Activity

City Distance Mag. Time & Date
Minimum magnitude displayed is 2.5.

Coastal Water Temperatures

Place Temperature

Nearby Weather Stations